createdAt,value
2023-04-11T00:01:14.787Z,11.80
2023-04-11T00:03:41.691Z,11.70
2023-04-11T00:06:08.590Z,11.70
2023-04-11T00:08:35.164Z,11.70
2023-04-11T00:11:01.791Z,11.60
2023-04-11T00:13:28.428Z,11.60
2023-04-11T00:15:55.713Z,11.50
2023-04-11T00:18:23.139Z,11.60
2023-04-11T00:20:49.745Z,11.50
2023-04-11T00:23:16.412Z,11.50
2023-04-11T00:25:43.074Z,11.50
2023-04-11T00:28:10.423Z,11.50
2023-04-11T00:30:37.140Z,11.50
2023-04-11T00:33:04.075Z,11.50
2023-04-11T00:35:34.508Z,11.50
2023-04-11T00:38:02.092Z,11.50
2023-04-11T00:40:28.854Z,11.50
2023-04-11T00:42:56.392Z,11.50
2023-04-11T00:45:23.229Z,11.50
2023-04-11T00:47:50.553Z,11.50
2023-04-11T00:50:18.015Z,11.40
2023-04-11T00:52:47.346Z,11.40
2023-04-11T00:55:14.433Z,11.40
2023-04-11T00:57:41.929Z,11.40
2023-04-11T01:00:11.874Z,11.30
2023-04-11T01:02:43.028Z,11.30
2023-04-11T01:05:11.870Z,11.30
2023-04-11T01:07:40.732Z,11.20
2023-04-11T01:10:08.676Z,11.30
2023-04-11T01:12:36.727Z,11.30
2023-04-11T01:15:03.809Z,11.30
2023-04-11T01:17:30.571Z,11.20
2023-04-11T01:19:57.778Z,11.20
2023-04-11T01:22:25.584Z,11.20
2023-04-11T01:24:52.245Z,11.20
2023-04-11T01:27:19.500Z,11.20
2023-04-11T01:29:46.085Z,11.20
2023-04-11T01:32:12.670Z,11.20
2023-04-11T01:34:42.089Z,11.10
2023-04-11T01:37:09.369Z,11.10
2023-04-11T01:39:36.032Z,11.10
2023-04-11T01:42:04.312Z,11.10
2023-04-11T01:44:33.234Z,11.10
2023-04-11T01:47:00.233Z,11.10
2023-04-11T01:49:26.843Z,10.80
2023-04-11T01:51:53.445Z,11.10
2023-04-11T01:54:20.039Z,11.10
2023-04-11T01:56:46.731Z,11.00
2023-04-11T01:59:13.333Z,11.00
2023-04-11T02:01:42.720Z,11.00
2023-04-11T02:04:09.576Z,11.00
2023-04-11T02:06:36.179Z,11.00
2023-04-11T02:09:04.269Z,11.00
2023-04-11T02:11:30.897Z,11.10
2023-04-11T02:13:57.508Z,11.00
2023-04-11T02:16:25.936Z,11.10
2023-04-11T02:18:54.105Z,11.00
2023-04-11T02:21:21.158Z,11.00
2023-04-11T02:23:47.858Z,11.00
2023-04-11T02:26:14.751Z,10.90
2023-04-11T02:28:41.308Z,10.90
2023-04-11T02:31:08.166Z,12.60
2023-04-11T02:33:34.764Z,10.80
2023-04-11T02:36:01.378Z,10.70
2023-04-11T02:38:28.009Z,10.80
2023-04-11T02:40:54.552Z,10.80
2023-04-11T02:43:21.156Z,10.80
2023-04-11T02:45:47.815Z,10.80
2023-04-11T02:48:14.469Z,10.80
2023-04-11T02:50:41.233Z,10.70
2023-04-11T02:53:08.063Z,10.70
2023-04-11T02:55:35.029Z,10.70
2023-04-11T02:58:01.735Z,10.70
2023-04-11T03:00:29.184Z,10.70
2023-04-11T03:02:56.787Z,10.70
2023-04-11T03:05:23.493Z,10.60
2023-04-11T03:07:50.204Z,10.60
2023-04-11T03:10:16.841Z,10.60
2023-04-11T03:12:43.439Z,10.50
2023-04-11T03:15:10.579Z,10.50
2023-04-11T03:17:37.171Z,10.50
2023-04-11T03:20:07.117Z,10.60
2023-04-11T03:22:33.733Z,10.60
2023-04-11T03:25:00.622Z,10.60
2023-04-11T03:27:27.326Z,10.60
2023-04-11T03:29:53.930Z,10.60
2023-04-11T03:32:20.520Z,10.60
2023-04-11T03:34:47.102Z,10.40
2023-04-11T03:37:13.733Z,10.60
2023-04-11T03:39:40.357Z,10.60
2023-04-11T03:42:06.957Z,10.60
2023-04-11T03:44:33.582Z,10.60
2023-04-11T03:47:00.293Z,10.60
2023-04-11T03:49:26.928Z,10.60
2023-04-11T03:51:53.488Z,10.60
2023-04-11T03:54:20.410Z,10.60
2023-04-11T03:56:46.984Z,10.60
2023-04-11T03:59:13.593Z,10.70
2023-04-11T04:01:40.274Z,10.70
2023-04-11T04:04:07.687Z,10.60
2023-04-11T04:06:34.390Z,10.50
2023-04-11T04:09:00.950Z,10.30
2023-04-11T04:11:27.508Z,10.50
2023-04-11T04:13:54.451Z,10.50
2023-04-11T04:16:21.269Z,10.40
2023-04-11T04:18:47.913Z,10.40
2023-04-11T04:21:15.550Z,10.30
2023-04-11T04:23:47.375Z,10.30
2023-04-11T04:26:16.218Z,10.30
2023-04-11T04:28:46.348Z,10.30
2023-04-11T04:31:15.071Z,10.30
2023-04-11T04:33:42.851Z,10.30
2023-04-11T04:36:12.283Z,10.40
2023-04-11T04:38:42.007Z,10.30
2023-04-11T04:41:14.934Z,10.40
2023-04-11T04:43:42.557Z,10.30
2023-04-11T04:46:09.595Z,9.80
2023-04-11T04:48:36.330Z,10.00
2023-04-11T04:51:04.731Z,9.90
2023-04-11T04:53:34.572Z,9.90
2023-04-11T04:56:01.845Z,9.80
2023-04-11T04:58:28.484Z,9.70
2023-04-11T05:00:55.886Z,9.60
2023-04-11T05:03:23.472Z,9.50
2023-04-11T05:05:50.466Z,9.50
2023-04-11T05:08:19.320Z,9.50
2023-04-11T05:10:45.889Z,9.40
2023-04-11T05:13:12.528Z,9.40
2023-04-11T05:15:39.174Z,9.30
2023-04-11T05:18:05.829Z,9.30
2023-04-11T05:20:32.480Z,9.30
2023-04-11T05:22:59.081Z,9.20
2023-04-11T05:25:25.994Z,9.30
2023-04-11T05:27:52.699Z,9.30
2023-04-11T05:30:19.256Z,9.30
2023-04-11T05:32:46.393Z,9.30
2023-04-11T05:35:13.054Z,9.30
2023-04-11T05:37:40.451Z,9.30
2023-04-11T05:40:08.845Z,9.30
2023-04-11T05:42:35.665Z,9.20
2023-04-11T05:45:02.350Z,9.20
2023-04-11T05:47:29.034Z,9.20
2023-04-11T05:49:55.572Z,9.20
2023-04-11T05:52:22.167Z,9.20
2023-04-11T05:54:48.704Z,9.10
2023-04-11T05:57:15.255Z,9.00
2023-04-11T05:59:41.832Z,8.90
2023-04-11T06:02:09.021Z,8.90
2023-04-11T06:04:36.035Z,9.00
2023-04-11T06:07:04.265Z,9.00
2023-04-11T06:09:32.734Z,9.00
2023-04-11T06:12:01.434Z,9.00
2023-04-11T06:14:28.017Z,9.10
2023-04-11T06:16:54.564Z,8.30
2023-04-11T06:19:21.194Z,9.20
2023-04-11T06:21:47.771Z,9.20
2023-04-11T06:24:18.445Z,9.20
2023-04-11T06:26:45.511Z,9.20
2023-04-11T06:29:12.088Z,9.30
2023-04-11T06:31:40.269Z,9.30
2023-04-11T06:34:06.965Z,9.30
2023-04-11T06:36:33.558Z,9.20
2023-04-11T06:39:00.234Z,9.50
2023-04-11T06:41:26.837Z,9.40
2023-04-11T06:43:53.414Z,9.40
2023-04-11T06:46:20.013Z,9.40
2023-04-11T06:48:46.612Z,9.40
2023-04-11T06:51:13.171Z,9.40
2023-04-11T06:53:39.729Z,9.50
2023-04-11T06:56:06.813Z,9.50
2023-04-11T06:58:33.435Z,9.40
2023-04-11T07:01:00.000Z,9.50
2023-04-11T07:03:27.385Z,9.40
2023-04-11T07:05:54.091Z,9.50
2023-04-11T07:08:20.668Z,9.50
2023-04-11T07:10:47.302Z,9.50
2023-04-11T07:13:13.886Z,9.60
2023-04-11T07:15:40.453Z,9.70
2023-04-11T07:18:07.071Z,9.70
2023-04-11T07:20:34.442Z,9.70
2023-04-11T07:23:01.088Z,9.80
2023-04-11T07:25:30.576Z,9.70
2023-04-11T07:27:57.734Z,9.70
2023-04-11T07:30:24.385Z,9.80
2023-04-11T07:32:51.069Z,9.80
2023-04-11T07:35:17.776Z,9.80
2023-04-11T07:37:45.561Z,9.80
2023-04-11T07:40:14.151Z,9.80
2023-04-11T07:42:41.371Z,9.70
2023-04-11T07:45:08.890Z,9.70
2023-04-11T07:47:35.735Z,9.70
2023-04-11T07:50:03.144Z,9.80
2023-04-11T07:52:30.001Z,10.00
2023-04-11T07:54:56.588Z,10.00
2023-04-11T07:57:23.310Z,10.00
2023-04-11T07:59:49.928Z,10.00
2023-04-11T08:02:16.661Z,10.10
2023-04-11T08:04:43.372Z,10.00
2023-04-11T08:07:10.066Z,10.00
2023-04-11T08:09:36.703Z,9.90
2023-04-11T08:12:04.330Z,9.90
2023-04-11T08:14:30.941Z,9.90
2023-04-11T08:16:58.976Z,9.90
2023-04-11T08:19:25.844Z,9.90
2023-04-11T08:21:52.773Z,9.90
2023-04-11T08:24:19.584Z,9.80
2023-04-11T08:26:46.293Z,9.80
2023-04-11T08:29:13.004Z,9.80
2023-04-11T08:31:45.885Z,9.60
2023-04-11T08:34:12.811Z,9.70
2023-04-11T08:36:39.426Z,9.40
2023-04-11T08:39:06.611Z,9.50
2023-04-11T08:41:34.486Z,9.40
2023-04-11T08:44:01.054Z,9.30
2023-04-11T08:46:28.476Z,9.20
2023-04-11T08:48:55.158Z,9.10
2023-04-11T08:51:28.759Z,9.00
2023-04-11T08:53:57.862Z,9.10
2023-04-11T08:56:24.703Z,9.00
2023-04-11T08:58:51.272Z,9.10
2023-04-11T09:01:32.513Z,9.10
2023-04-11T09:04:01.193Z,9.10
2023-04-11T09:06:30.833Z,9.10
2023-04-11T09:09:07.982Z,9.10
2023-04-11T09:11:52.583Z,9.10
2023-04-11T09:14:23.711Z,9.30
2023-04-11T09:16:54.794Z,9.40
2023-04-11T09:19:25.929Z,9.50
2023-04-11T09:21:54.406Z,9.80
2023-04-11T09:24:22.150Z,10.10
2023-04-11T09:27:05.556Z,10.10
2023-04-11T09:29:45.493Z,10.20
2023-04-11T09:32:30.230Z,10.30
2023-04-11T09:35:18.670Z,10.30
2023-04-11T09:37:53.436Z,10.40
2023-04-11T09:40:33.231Z,10.40
2023-04-11T09:43:01.845Z,10.50
2023-04-11T09:45:32.276Z,10.60
2023-04-11T09:48:02.876Z,11.00
2023-04-11T09:50:29.502Z,10.90
2023-04-11T09:52:58.899Z,11.10
2023-04-11T09:55:25.958Z,11.20
2023-04-11T09:57:54.633Z,11.50
2023-04-11T10:00:24.278Z,11.40
2023-04-11T10:02:53.590Z,11.40
2023-04-11T10:05:26.075Z,11.30
2023-04-11T10:07:55.494Z,11.30
2023-04-11T10:10:23.590Z,11.30
2023-04-11T10:12:50.997Z,11.20
2023-04-11T10:15:18.328Z,11.20
2023-04-11T10:18:08.231Z,11.10
2023-04-11T10:20:35.491Z,11.00
2023-04-11T10:23:02.209Z,11.00
2023-04-11T10:25:29.172Z,11.20
2023-04-11T10:28:04.565Z,11.50
2023-04-11T10:31:06.899Z,11.40
2023-04-11T10:33:34.930Z,11.40
2023-04-11T10:36:12.139Z,11.60
2023-04-11T10:38:44.485Z,11.70
2023-04-11T10:41:21.068Z,11.80
2023-04-11T10:43:48.545Z,12.00
2023-04-11T10:46:19.266Z,12.10
2023-04-11T10:49:03.587Z,12.10
2023-04-11T10:51:32.461Z,12.20
2023-04-11T10:54:00.199Z,12.40
2023-04-11T10:56:50.519Z,12.30
2023-04-11T10:59:52.502Z,12.30
2023-04-11T11:02:19.912Z,12.40
2023-04-11T11:04:47.336Z,12.10
2023-04-11T11:07:17.719Z,12.00
2023-04-11T11:09:51.367Z,12.00
2023-04-11T11:12:18.240Z,12.00
2023-04-11T11:14:46.446Z,12.00
2023-04-11T11:17:14.268Z,11.90
2023-04-11T11:19:45.618Z,11.90
2023-04-11T11:22:25.543Z,11.90
2023-04-11T11:24:52.762Z,11.70
2023-04-11T11:27:20.740Z,11.70
2023-04-11T11:29:47.336Z,11.70
2023-04-11T11:32:32.518Z,11.70
2023-04-11T11:34:59.251Z,11.80
2023-04-11T11:37:25.878Z,11.90
2023-04-11T11:39:52.994Z,11.90
2023-04-11T11:42:19.766Z,12.10
2023-04-11T11:44:46.417Z,12.30
2023-04-11T11:47:15.341Z,12.40
2023-04-11T11:49:48.851Z,12.30
2023-04-11T11:52:39.879Z,12.50
2023-04-11T11:55:31.673Z,12.60
2023-04-11T11:58:02.774Z,12.60
2023-04-11T12:00:31.666Z,12.40
2023-04-11T12:03:00.682Z,12.40
2023-04-11T12:05:33.075Z,11.80
2023-04-11T12:08:01.902Z,12.30
2023-04-11T12:10:40.072Z,12.00
2023-04-11T12:13:25.479Z,11.80
2023-04-11T12:15:56.883Z,12.00
2023-04-11T12:18:25.155Z,12.40
2023-04-11T12:20:52.029Z,12.80
2023-04-11T12:23:19.235Z,12.70
2023-04-11T12:25:46.712Z,12.20
2023-04-11T12:28:13.871Z,12.10
2023-04-11T12:30:40.675Z,11.90
2023-04-11T12:33:07.418Z,12.10
2023-04-11T12:35:34.297Z,12.20
2023-04-11T12:38:01.245Z,12.20
2023-04-11T12:40:29.697Z,12.50
2023-04-11T12:42:57.501Z,12.50
2023-04-11T12:45:25.057Z,12.50
2023-04-11T12:47:51.846Z,12.40
2023-04-11T12:50:18.729Z,12.10
2023-04-11T12:52:45.378Z,12.00
2023-04-11T12:55:13.291Z,12.00
2023-04-11T12:57:40.964Z,12.00
2023-04-11T13:00:08.834Z,12.10
2023-04-11T13:02:42.947Z,12.10
2023-04-11T13:05:16.433Z,12.10
2023-04-11T13:07:47.457Z,12.20
2023-04-11T13:10:18.048Z,12.10
2023-04-11T13:12:45.920Z,12.00
2023-04-11T13:15:14.836Z,11.70
2023-04-11T13:17:41.923Z,11.20
2023-04-11T13:20:10.339Z,11.30
2023-04-11T13:22:38.253Z,11.00
2023-04-11T13:25:05.411Z,10.70
2023-04-11T13:27:32.114Z,10.40
2023-04-11T13:29:58.752Z,10.40
2023-04-11T13:32:25.470Z,10.20
2023-04-11T13:34:52.158Z,10.10
2023-04-11T13:37:18.778Z,10.10
2023-04-11T13:39:45.621Z,9.90
2023-04-11T13:42:12.173Z,9.80
2023-04-11T13:44:38.716Z,9.70
2023-04-11T13:47:05.468Z,9.70
2023-04-11T13:49:32.074Z,9.50
2023-04-11T13:51:58.653Z,9.50
2023-04-11T13:54:26.063Z,9.20
2023-04-11T13:56:52.625Z,9.00
2023-04-11T13:59:19.247Z,8.70
2023-04-11T14:01:45.900Z,8.60
2023-04-11T14:04:12.681Z,8.40
2023-04-11T14:06:39.645Z,8.20
2023-04-11T14:09:06.307Z,8.20
2023-04-11T14:11:33.051Z,8.30
2023-04-11T14:13:59.588Z,8.20
2023-04-11T14:16:26.181Z,8.20
2023-04-11T14:18:52.785Z,8.10
2023-04-11T14:21:19.446Z,8.40
2023-04-11T14:23:46.292Z,8.00
2023-04-11T14:26:12.821Z,8.00
2023-04-11T14:28:39.432Z,8.00
2023-04-11T14:31:06.581Z,8.00
2023-04-11T14:33:33.206Z,8.00
2023-04-11T14:36:00.142Z,7.90
2023-04-11T14:38:26.700Z,7.90
2023-04-11T14:40:53.295Z,7.90
2023-04-11T14:43:19.846Z,7.90
2023-04-11T14:45:47.568Z,8.00
2023-04-11T14:48:14.142Z,8.00
2023-04-11T14:50:40.700Z,8.20
2023-04-11T14:53:07.249Z,8.30
2023-04-11T14:55:33.865Z,8.10
2023-04-11T14:58:00.448Z,8.30
2023-04-11T15:00:27.140Z,8.30
2023-04-11T15:02:55.735Z,8.30
2023-04-11T15:05:23.397Z,8.40
2023-04-11T15:07:51.826Z,8.60
2023-04-11T15:10:21.476Z,8.60
2023-04-11T15:12:48.773Z,8.70
2023-04-11T15:15:15.868Z,8.70
2023-04-11T15:17:47.844Z,8.60
2023-04-11T15:20:15.315Z,8.70
2023-04-11T15:22:43.577Z,8.80
2023-04-11T15:25:14.961Z,8.60
2023-04-11T15:27:42.362Z,8.90
2023-04-11T15:30:10.293Z,9.00
2023-04-11T15:32:41.972Z,9.10
2023-04-11T15:35:09.178Z,9.00
2023-04-11T15:37:35.932Z,9.10
2023-04-11T15:40:05.989Z,9.20
2023-04-11T15:42:35.199Z,9.30
2023-04-11T15:45:02.319Z,9.40
2023-04-11T15:47:29.228Z,9.40
2023-04-11T15:49:56.275Z,9.40
2023-04-11T15:52:22.883Z,9.00
2023-04-11T15:54:49.440Z,9.00
2023-04-11T15:57:18.247Z,9.50
2023-04-11T15:59:44.993Z,9.50
2023-04-11T16:02:11.945Z,9.50
2023-04-11T16:04:38.875Z,9.40
2023-04-11T16:07:06.628Z,9.40
2023-04-11T16:09:34.588Z,9.30
2023-04-11T16:12:01.857Z,9.30
2023-04-11T16:14:29.004Z,9.30
2023-04-11T16:16:56.492Z,9.20
2023-04-11T16:19:23.126Z,9.00
2023-04-11T16:21:49.882Z,8.90
2023-04-11T16:24:16.612Z,8.80
2023-04-11T16:26:43.520Z,8.60
2023-04-11T16:29:10.147Z,8.60
2023-04-11T16:31:36.863Z,8.60
2023-04-11T16:34:03.493Z,8.50
2023-04-11T16:36:30.169Z,8.40
2023-04-11T16:38:56.731Z,8.50
2023-04-11T16:41:23.438Z,8.50
2023-04-11T16:43:50.077Z,8.10
2023-04-11T16:46:17.041Z,8.30
2023-04-11T16:48:44.037Z,8.30
2023-04-11T16:51:12.143Z,8.30
2023-04-11T16:53:39.693Z,8.30
2023-04-11T16:56:06.730Z,8.40
2023-04-11T16:58:33.746Z,8.40
2023-04-11T17:01:01.436Z,8.40
2023-04-11T17:03:28.310Z,8.50
2023-04-11T17:05:55.048Z,8.50
2023-04-11T17:08:22.977Z,8.50
2023-04-11T17:10:49.804Z,8.50
2023-04-11T17:13:18.407Z,7.50
2023-04-11T17:15:45.974Z,8.40
2023-04-11T17:18:14.485Z,8.30
2023-04-11T17:20:43.199Z,8.30
2023-04-11T17:23:10.084Z,8.30
2023-04-11T17:25:36.703Z,8.20
2023-04-11T17:28:03.384Z,8.20
2023-04-11T17:30:31.004Z,8.20
2023-04-11T17:32:58.143Z,8.20
2023-04-11T17:35:24.884Z,8.20
2023-04-11T17:37:51.723Z,8.20
2023-04-11T17:40:18.737Z,8.10
2023-04-11T17:42:46.001Z,8.10
2023-04-11T17:47:42.684Z,8.10
2023-04-11T17:50:11.415Z,8.10
2023-04-11T17:52:40.171Z,8.00
2023-04-11T17:55:08.189Z,8.00
2023-04-11T17:57:34.821Z,8.00
2023-04-11T18:00:19.046Z,7.90
2023-04-11T18:02:50.297Z,7.90
2023-04-11T18:05:23.806Z,7.90
2023-04-11T18:07:51.654Z,7.80
2023-04-11T18:10:18.338Z,7.80
2023-04-11T18:12:48.605Z,7.80
2023-04-11T18:15:15.322Z,7.70
2023-04-11T18:17:42.247Z,7.70
2023-04-11T18:20:10.680Z,7.70
2023-04-11T18:22:39.579Z,7.70
2023-04-11T18:25:07.626Z,7.70
2023-04-11T18:27:36.123Z,7.60
2023-04-11T18:30:04.798Z,7.60
2023-04-11T18:32:34.716Z,7.50
2023-04-11T18:35:07.069Z,7.50
2023-04-11T18:37:34.782Z,7.40
2023-04-11T18:40:05.925Z,7.40
2023-04-11T18:42:32.496Z,7.40
2023-04-11T18:44:59.953Z,7.40
2023-04-11T18:47:26.734Z,7.40
2023-04-11T18:49:53.293Z,7.30
2023-04-11T18:52:19.855Z,7.30
2023-04-11T18:54:46.452Z,7.70
2023-04-11T18:57:14.802Z,7.30
2023-04-11T18:59:43.968Z,7.30
2023-04-11T19:02:14.009Z,7.30
2023-04-11T19:04:44.088Z,7.30
2023-04-11T19:07:12.361Z,7.20
2023-04-11T19:09:39.106Z,7.20
2023-04-11T19:12:06.251Z,7.20
2023-04-11T19:14:33.652Z,7.10
2023-04-11T19:17:00.877Z,7.10
2023-04-11T19:19:28.420Z,7.10
2023-04-11T19:21:55.932Z,7.10
2023-04-11T19:24:22.500Z,7.00
2023-04-11T19:26:49.704Z,7.00
2023-04-11T19:29:16.559Z,6.90
2023-04-11T19:31:43.195Z,6.90
2023-04-11T19:34:09.932Z,6.90
2023-04-11T19:36:36.728Z,6.80
2023-04-11T19:39:03.860Z,7.00
2023-04-11T19:41:30.536Z,6.80
2023-04-11T19:43:57.247Z,6.70
2023-04-11T19:46:24.446Z,6.80
2023-04-11T19:48:51.510Z,6.70
2023-04-11T19:51:18.086Z,6.70
2023-04-11T19:53:44.893Z,6.70
2023-04-11T19:56:12.479Z,6.90
2023-04-11T19:58:39.918Z,6.70
2023-04-11T20:01:07.249Z,6.60
2023-04-11T20:03:34.374Z,6.70
2023-04-11T20:06:02.183Z,6.50
2023-04-11T20:08:32.439Z,6.50
2023-04-11T20:10:59.280Z,6.60
2023-04-11T20:13:25.864Z,6.40
2023-04-11T20:15:52.442Z,5.50
2023-04-11T20:18:19.027Z,6.30
2023-04-11T20:20:45.648Z,6.30
2023-04-11T20:23:15.730Z,6.30
2023-04-11T20:25:43.182Z,6.20
2023-04-11T20:28:09.906Z,6.20
2023-04-11T20:30:38.573Z,6.20
2023-04-11T20:33:05.257Z,6.10
2023-04-11T20:35:31.986Z,6.10
2023-04-11T20:37:58.902Z,6.10
2023-04-11T20:40:28.246Z,6.10
2023-04-11T20:42:56.603Z,6.20
2023-04-11T20:45:25.642Z,6.20
2023-04-11T20:47:52.874Z,6.20
2023-04-11T20:50:19.734Z,6.30
2023-04-11T20:52:50.301Z,6.30
2023-04-11T20:55:17.956Z,6.20
2023-04-11T20:57:44.980Z,6.20
2023-04-11T21:00:16.852Z,6.20
2023-04-11T21:02:47.092Z,6.20
2023-04-11T21:05:15.048Z,6.20
2023-04-11T21:07:42.992Z,6.20
2023-04-11T21:10:10.519Z,6.20
2023-04-11T21:12:37.598Z,6.20
2023-04-11T21:15:04.782Z,6.10
2023-04-11T21:17:33.971Z,6.10
2023-04-11T21:20:10.238Z,6.10
2023-04-11T21:22:36.828Z,6.10
2023-04-11T21:25:04.053Z,6.10
2023-04-11T21:27:30.810Z,6.10
2023-04-11T21:29:57.395Z,6.10
2023-04-11T21:32:24.021Z,6.10
2023-04-11T21:34:50.655Z,6.10
2023-04-11T21:37:17.185Z,6.10
2023-04-11T21:39:43.887Z,6.00
2023-04-11T21:42:10.503Z,6.00
2023-04-11T21:44:39.862Z,6.00
2023-04-11T21:47:06.575Z,6.00
2023-04-11T21:49:33.165Z,5.90
2023-04-11T21:51:59.743Z,5.90
2023-04-11T21:54:26.276Z,6.20
2023-04-11T21:56:52.855Z,5.90
2023-04-11T21:59:19.489Z,5.80
2023-04-11T22:01:47.744Z,5.80
2023-04-11T22:04:17.614Z,5.70
2023-04-11T22:06:47.633Z,5.80
2023-04-11T22:09:15.356Z,5.80
2023-04-11T22:11:42.025Z,5.90
2023-04-11T22:14:08.615Z,5.90
2023-04-11T22:16:35.773Z,5.80
2023-04-11T22:19:02.455Z,5.40
2023-04-11T22:21:31.783Z,5.70
2023-04-11T22:23:58.538Z,5.60
2023-04-11T22:26:29.274Z,5.60
2023-04-11T22:29:00.460Z,5.50
2023-04-11T22:31:30.387Z,5.70
2023-04-11T22:33:57.652Z,5.60
2023-04-11T22:36:24.664Z,5.60
2023-04-11T22:38:51.269Z,5.60
2023-04-11T22:41:18.315Z,5.90
2023-04-11T22:43:45.014Z,5.30
2023-04-11T22:46:12.212Z,5.50
2023-04-11T22:48:38.875Z,5.40
2023-04-11T22:51:05.981Z,5.50
2023-04-11T22:53:34.370Z,5.40
2023-04-11T22:56:01.960Z,5.50
2023-04-11T22:58:28.653Z,5.50
2023-04-11T23:00:55.604Z,5.50
2023-04-11T23:03:22.340Z,5.50
2023-04-11T23:05:49.644Z,5.60
2023-04-11T23:08:16.543Z,5.60
2023-04-11T23:10:43.113Z,5.50
2023-04-11T23:13:09.737Z,5.00
2023-04-11T23:15:37.330Z,5.50
2023-04-11T23:18:04.007Z,5.50
2023-04-11T23:20:30.963Z,5.40
2023-04-11T23:22:58.345Z,5.70
2023-04-11T23:25:25.264Z,5.60
2023-04-11T23:27:52.560Z,5.30
2023-04-11T23:30:20.038Z,5.30
2023-04-11T23:32:47.086Z,5.30
2023-04-11T23:35:16.734Z,5.60
2023-04-11T23:37:43.397Z,5.30
2023-04-11T23:40:11.302Z,5.30
2023-04-11T23:42:38.508Z,5.30
2023-04-11T23:45:06.569Z,5.30
2023-04-11T23:47:33.736Z,5.40
2023-04-11T23:50:02.030Z,5.30
2023-04-11T23:52:29.125Z,5.30
2023-04-11T23:54:56.249Z,5.20
2023-04-11T23:57:25.813Z,5.20
2023-04-11T23:59:52.452Z,5.10
